Time;durP1;ratioP1;P1;durP2;ratioP2;P2;SDS_P1;SDS_P2;PMS_P1;PMS_P2;Temp;Humidity;BMP_temperature;BMP_pressure;BME280_temperature;BME280_humidity;BME280_pressure;Samples;Min_cycle;Max_cycle;Signal;HPM_P1;HPM_P2
2022/05/20 00:00:32;;;;;;;7.95;4.97;;;14.00;99.90;;;;;;5052493;28;20491;-71
2022/05/20 00:02:58;;;;;;;7.45;4.78;;;14.00;99.90;;;;;;5052705;28;20048;-71
2022/05/20 00:05:24;;;;;;;10.23;4.63;;;14.00;99.90;;;;;;5054495;28;20037;-70
2022/05/20 00:07:50;;;;;;;8.07;4.20;;;13.90;99.90;;;;;;5053757;28;20380;-71
2022/05/20 00:10:17;;;;;;;7.10;4.50;;;14.00;99.90;;;;;;5053783;28;20051;-71
2022/05/20 00:12:44;;;;;;;8.57;5.32;;;13.90;99.90;;;;;;5052854;28;20053;-71
2022/05/20 00:15:12;;;;;;;10.07;5.03;;;13.90;99.90;;;;;;5053918;28;20091;-71
2022/05/20 00:17:38;;;;;;;8.48;4.57;;;13.80;99.90;;;;;;5053515;28;20120;-71
2022/05/20 00:20:06;;;;;;;7.53;5.00;;;13.90;99.90;;;;;;5053338;28;20099;-71
2022/05/20 00:22:32;;;;;;;8.35;4.93;;;13.80;99.90;;;;;;5052419;28;20044;-71
2022/05/20 00:27:41;;;;;;;8.93;5.60;;;13.80;99.90;;;;;;5053644;28;20419;-71
2022/05/20 00:30:07;;;;;;;11.02;5.32;;;13.80;99.90;;;;;;5053204;28;20041;-71
2022/05/20 00:32:33;;;;;;;5.70;5.18;;;13.80;99.90;;;;;;5053268;28;20055;-71
2022/05/20 00:34:59;;;;;;;6.60;5.10;;;13.80;99.90;;;;;;5053231;28;20084;-71
2022/05/20 00:37:25;;;;;;;8.90;5.18;;;13.80;99.90;;;;;;5052986;28;20056;-71
2022/05/20 00:39:50;;;;;;;6.72;4.90;;;13.90;99.90;;;;;;5053322;28;20041;-71
2022/05/20 00:42:18;;;;;;;7.40;5.47;;;13.90;99.90;;;;;;5053074;28;20456;-71
2022/05/20 00:44:44;;;;;;;7.72;5.65;;;13.90;99.90;;;;;;5049208;28;20384;-71
2022/05/20 00:47:12;;;;;;;8.45;5.43;;;13.90;99.90;;;;;;5052943;28;20158;-71
2022/05/20 00:49:40;;;;;;;8.23;5.40;;;13.90;99.90;;;;;;5051653;28;20391;-71
2022/05/20 00:52:11;;;;;;;10.27;5.65;;;13.90;99.90;;;;;;5052647;28;20049;-71
2022/05/20 00:54:41;;;;;;;6.82;5.00;;;13.90;99.90;;;;;;5035115;28;20052;-71
2022/05/20 00:57:49;;;;;;;10.98;5.80;;;13.90;99.90;;;;;;5052862;28;20051;-71
2022/05/20 01:00:23;;;;;;;8.90;6.35;;;13.90;99.90;;;;;;5037527;28;20059;-71
2022/05/20 01:02:52;;;;;;;10.77;5.38;;;13.80;99.90;;;;;;5052823;28;20509;-71
2022/05/20 01:05:27;;;;;;;7.63;6.82;;;13.80;99.90;;;;;;5051455;28;20048;-71
2022/05/20 01:07:54;;;;;;;11.43;6.78;;;13.80;99.90;;;;;;5052882;28;20040;-71
2022/05/20 01:10:20;;;;;;;10.98;6.80;;;13.80;99.90;;;;;;5051346;28;20116;-71
2022/05/20 01:12:48;;;;;;;8.73;6.35;;;13.70;99.90;;;;;;5051631;28;20045;-71
2022/05/20 01:15:14;;;;;;;10.73;6.13;;;13.70;99.90;;;;;;5052701;28;20036;-71
2022/05/20 01:17:39;;;;;;;9.63;6.18;;;13.70;99.90;;;;;;5052470;28;20098;-70
2022/05/20 01:20:13;;;;;;;8.30;6.90;;;13.70;99.90;;;;;;5052230;28;20040;-71
2022/05/20 01:22:54;;;;;;;11.15;7.55;;;13.60;99.90;;;;;;5051320;28;20487;-71
2022/05/20 01:25:21;;;;;;;8.02;6.45;;;13.60;99.90;;;;;;5034710;28;20068;-71
2022/05/20 01:27:47;;;;;;;9.60;6.50;;;13.60;99.90;;;;;;5051255;28;20567;-71
2022/05/20 01:30:18;;;;;;;6.97;6.13;;;13.60;99.90;;;;;;5050716;28;20041;-71
2022/05/20 01:32:44;;;;;;;9.50;6.95;;;13.50;99.90;;;;;;5052349;28;20082;-71
2022/05/20 01:35:35;;;;;;;11.80;7.85;;;13.50;99.90;;;;;;5050959;28;20040;-71
2022/05/20 01:38:00;;;;;;;11.65;7.70;;;13.50;99.90;;;;;;5052349;28;20041;-71
2022/05/20 01:40:34;;;;;;;10.75;7.40;;;13.40;99.90;;;;;;5050571;28;20603;-71
2022/05/20 01:43:06;;;;;;;14.18;8.15;;;13.40;99.90;;;;;;5052203;28;20048;-71
2022/05/20 01:45:39;;;;;;;13.27;8.13;;;13.40;99.90;;;;;;5050839;28;20048;-71
2022/05/20 01:48:18;;;;;;;16.83;8.77;;;13.30;99.90;;;;;;5051997;28;20442;-71
2022/05/20 01:50:52;;;;;;;12.20;9.10;;;13.30;99.90;;;;;;5051682;28;20494;-70
2022/05/20 01:53:31;;;;;;;12.50;8.98;;;13.30;99.90;;;;;;5052056;28;20115;-72
2022/05/20 01:56:16;;;;;;;13.55;9.90;;;13.30;99.90;;;;;;5050276;28;20045;-71
2022/05/20 01:58:51;;;;;;;13.32;9.45;;;13.30;99.90;;;;;;5052034;28;20048;-71
2022/05/20 02:01:23;;;;;;;17.30;9.50;;;13.40;99.90;;;;;;5050563;28;20045;-71
2022/05/20 02:04:00;;;;;;;14.45;8.88;;;13.40;99.90;;;;;;5051794;28;20509;-71
2022/05/20 02:06:32;;;;;;;10.52;8.60;;;13.40;99.90;;;;;;5051670;28;20415;-71
2022/05/20 02:09:01;;;;;;;15.93;9.70;;;13.40;99.90;;;;;;5051960;28;20402;-71
2022/05/20 02:11:37;;;;;;;14.93;9.75;;;13.40;99.90;;;;;;5050326;28;20052;-71
2022/05/20 02:14:24;;;;;;;14.30;9.13;;;13.40;99.90;;;;;;5051710;28;20033;-71
2022/05/20 02:16:57;;;;;;;15.15;10.57;;;13.40;99.90;;;;;;5051569;28;20041;-70
2022/05/20 02:19:33;;;;;;;12.55;9.85;;;13.30;99.90;;;;;;5051720;28;20124;-71
2022/05/20 02:22:02;;;;;;;17.60;10.38;;;13.30;99.90;;;;;;5051479;28;20033;-71
2022/05/20 02:24:31;;;;;;;14.18;10.00;;;13.30;99.90;;;;;;5051646;28;20112;-71
2022/05/20 02:27:02;;;;;;;14.02;11.18;;;13.20;99.90;;;;;;5051492;28;20094;-70
2022/05/20 02:29:36;;;;;;;12.27;10.15;;;13.20;99.90;;;;;;5051495;28;20041;-71
2022/05/20 02:32:11;;;;;;;14.48;10.48;;;13.20;99.90;;;;;;5051238;28;20521;-71
2022/05/20 02:34:37;;;;;;;18.10;11.90;;;13.10;99.90;;;;;;5051571;28;20049;-71
2022/05/20 02:37:25;;;;;;;15.52;11.63;;;13.10;99.90;;;;;;5051255;28;20159;-70
2022/05/20 02:39:52;;;;;;;13.02;10.90;;;13.10;99.90;;;;;;5051289;28;20613;-71
2022/05/20 02:42:18;;;;;;;16.25;11.45;;;13.10;99.90;;;;;;5051146;28;20033;-71
2022/05/20 02:44:43;;;;;;;16.02;12.57;;;13.10;99.90;;;;;;5051601;28;20048;-71
2022/05/20 02:47:10;;;;;;;19.38;12.65;;;13.00;99.90;;;;;;5051277;28;20032;-71
2022/05/20 02:49:35;;;;;;;15.18;11.05;;;13.00;99.90;;;;;;5050224;28;20052;-71
2022/05/20 02:52:02;;;;;;;13.90;11.25;;;13.00;99.90;;;;;;5049802;28;20041;-70
2022/05/20 02:54:27;;;;;;;14.25;11.85;;;12.90;99.90;;;;;;5051203;28;20069;-71
2022/05/20 02:56:53;;;;;;;15.68;12.07;;;13.00;99.90;;;;;;5051440;28;20398;-70
2022/05/20 03:04:47;;;;;;;14.60;10.50;;;12.90;99.90;;;;;;5051137;28;20041;-71
2022/05/20 03:07:15;;;;;;;18.50;12.02;;;12.90;99.90;;;;;;5049756;28;20124;-71
2022/05/20 03:09:41;;;;;;;17.73;11.73;;;12.90;99.90;;;;;;5053420;28;20056;-71
2022/05/20 03:12:07;;;;;;;18.55;12.27;;;12.80;99.90;;;;;;5054739;28;20478;-71
2022/05/20 03:14:33;;;;;;;16.85;11.77;;;12.80;99.90;;;;;;5053512;28;20455;-71
2022/05/20 03:17:00;;;;;;;17.33;12.82;;;12.70;99.90;;;;;;5054840;28;20033;-70
2022/05/20 03:19:30;;;;;;;20.77;12.77;;;12.70;99.90;;;;;;5054581;28;20494;-71
2022/05/20 03:21:59;;;;;;;17.95;11.65;;;12.70;99.90;;;;;;5054654;28;20053;-71
2022/05/20 03:24:25;;;;;;;15.55;12.43;;;12.70;99.90;;;;;;5054836;28;20029;-70
2022/05/20 03:26:51;;;;;;;20.63;12.05;;;12.70;99.90;;;;;;5054704;28;20063;-70
2022/05/20 03:29:16;;;;;;;17.27;11.95;;;12.70;99.90;;;;;;5053345;28;20094;-71
2022/05/20 03:31:42;;;;;;;16.05;12.15;;;12.70;99.90;;;;;;5054285;28;20095;-71
2022/05/20 03:34:09;;;;;;;19.30;11.57;;;12.70;99.90;;;;;;5054262;28;20041;-71
2022/05/20 03:36:37;;;;;;;18.90;12.18;;;12.70;99.90;;;;;;5054341;28;20122;-69
2022/05/20 03:39:03;;;;;;;17.42;11.45;;;12.80;99.90;;;;;;5054398;28;20037;-69
2022/05/20 03:41:29;;;;;;;18.45;12.48;;;12.70;99.90;;;;;;5054318;28;20114;-68
2022/05/20 03:43:55;;;;;;;15.27;11.55;;;12.70;99.90;;;;;;5054343;28;20466;-69
2022/05/20 03:46:21;;;;;;;19.08;12.25;;;12.70;99.90;;;;;;5052893;28;20076;-68
2022/05/20 03:48:46;;;;;;;20.85;13.07;;;12.70;99.90;;;;;;5054025;28;20048;-69
2022/05/20 03:51:14;;;;;;;19.40;12.60;;;12.70;99.90;;;;;;5053797;28;20043;-68
2022/05/20 03:53:40;;;;;;;16.52;11.20;;;12.70;99.90;;;;;;5054206;28;20049;-69
2022/05/20 03:56:06;;;;;;;14.90;12.23;;;12.70;99.90;;;;;;5053993;28;20037;-68
2022/05/20 03:58:32;;;;;;;17.38;11.63;;;12.70;99.90;;;;;;5054089;28;20052;-68
2022/05/20 04:03:43;;;;;;;19.67;11.55;;;12.70;99.90;;;;;;5054071;28;20076;-69
2022/05/20 04:06:09;;;;;;;15.02;12.75;;;12.70;99.90;;;;;;5052492;28;20044;-69
2022/05/20 04:08:35;;;;;;;16.80;12.02;;;12.70;99.90;;;;;;5053894;28;20041;-68
2022/05/20 04:11:00;;;;;;;18.73;12.80;;;12.70;99.90;;;;;;5053551;28;20410;-68
2022/05/20 04:13:26;;;;;;;15.77;12.10;;;12.70;99.90;;;;;;5053780;28;20499;-68
2022/05/20 04:15:54;;;;;;;16.90;11.50;;;12.70;99.90;;;;;;5052244;28;20063;-68
2022/05/20 04:18:20;;;;;;;17.83;12.57;;;12.70;99.90;;;;;;5053665;28;20056;-69
2022/05/20 04:20:45;;;;;;;17.00;11.68;;;12.70;99.90;;;;;;5052798;28;20560;-69
2022/05/20 04:23:11;;;;;;;14.32;11.27;;;12.80;99.90;;;;;;5053622;28;20032;-69
2022/05/20 04:25:37;;;;;;;16.63;12.05;;;12.80;99.90;;;;;;5052490;28;20033;-68
2022/05/20 04:28:02;;;;;;;13.73;10.82;;;12.90;99.90;;;;;;5053405;28;20056;-68
2022/05/20 04:30:28;;;;;;;19.48;12.10;;;13.00;99.90;;;;;;5053117;28;20491;-69
2022/05/20 04:32:53;;;;;;;15.95;12.00;;;13.00;99.90;;;;;;5052408;28;20052;-69
2022/05/20 04:35:19;;;;;;;13.88;11.88;;;13.10;99.90;;;;;;5052122;28;20041;-68
2022/05/20 04:37:44;;;;;;;19.55;12.07;;;13.20;99.90;;;;;;5053380;28;20138;-69
2022/05/20 04:40:11;;;;;;;16.48;13.18;;;13.10;99.90;;;;;;5051647;28;20040;-68
2022/05/20 04:48:07;;;;;;;23.30;18.27;;;13.10;99.90;;;;;;5053179;28;20049;-68
2022/05/20 04:50:32;;;;;;;23.98;19.13;;;13.30;99.90;;;;;;5052627;28;20581;-68
2022/05/20 04:52:58;;;;;;;26.92;19.67;;;13.40;99.90;;;;;;5051645;28;20125;-69
2022/05/20 04:55:23;;;;;;;29.02;18.65;;;13.40;99.90;;;;;;5052777;28;20080;-68
2022/05/20 04:57:51;;;;;;;22.70;17.85;;;13.50;99.90;;;;;;5053084;28;20037;-68
2022/05/20 05:00:26;;;;;;;23.80;18.45;;;13.70;99.90;;;;;;5034669;28;20068;-69
2022/05/20 05:02:52;;;;;;;22.88;17.02;;;13.80;99.90;;;;;;5051667;28;20036;-69
2022/05/20 05:05:21;;;;;;;21.38;18.40;;;14.00;99.90;;;;;;5052696;28;20047;-69
2022/05/20 05:07:49;;;;;;;24.05;17.70;;;14.10;99.90;;;;;;5051607;28;20045;-69
2022/05/20 05:10:18;;;;;;;25.27;17.10;;;14.20;99.90;;;;;;5052354;28;20518;-69
2022/05/20 05:12:43;;;;;;;21.42;16.67;;;14.30;99.90;;;;;;5051627;28;20029;-69
2022/05/20 05:15:12;;;;;;;24.05;16.58;;;14.40;99.90;;;;;;5052541;28;20040;-69
2022/05/20 05:20:24;;;;;;;20.73;16.15;;;14.60;99.90;;;;;;5050892;28;20045;-69
2022/05/20 05:22:51;;;;;;;20.15;15.90;;;14.80;99.90;;;;;;5051543;28;20036;-69
2022/05/20 05:25:18;;;;;;;22.35;15.60;;;14.80;99.90;;;;;;5052651;28;20128;-69
2022/05/20 05:27:44;;;;;;;19.35;13.70;;;15.00;99.90;;;;;;5052287;28;20041;-69
2022/05/20 05:30:11;;;;;;;25.33;16.45;;;15.40;99.90;;;;;;5052001;28;20048;-69
2022/05/20 05:32:38;;;;;;;18.95;13.45;;;15.60;99.90;;;;;;5050227;28;20063;-69
2022/05/20 05:35:07;;;;;;;18.90;14.23;;;15.70;99.90;;;;;;5050775;28;20087;-69
2022/05/20 05:37:37;;;;;;;15.77;13.85;;;15.80;99.90;;;;;;5051925;28;20044;-70
2022/05/20 05:40:05;;;;;;;14.93;13.32;;;16.10;99.90;;;;;;5050751;28;20055;-69
2022/05/20 05:42:30;;;;;;;16.45;14.18;;;16.30;99.90;;;;;;5051050;28;20446;-69
2022/05/20 05:44:56;;;;;;;17.08;13.02;;;16.40;99.90;;;;;;5051903;28;20080;-69
2022/05/20 05:47:22;;;;;;;18.02;13.07;;;16.60;99.90;;;;;;5050564;28;20033;-69
2022/05/20 05:49:48;;;;;;;15.10;12.80;;;16.80;99.90;;;;;;5052218;28;20086;-69
2022/05/20 05:52:13;;;;;;;16.38;12.30;;;16.60;99.90;;;;;;5051742;28;20040;-68
2022/05/20 05:54:39;;;;;;;14.48;12.52;;;16.70;99.90;;;;;;5052007;28;20435;-69
2022/05/20 05:57:06;;;;;;;15.02;12.23;;;16.70;99.90;;;;;;5051829;28;20037;-69
2022/05/20 05:59:33;;;;;;;20.55;14.02;;;16.70;99.90;;;;;;5050475;28;20056;-69
2022/05/20 06:02:00;;;;;;;18.35;12.55;;;16.50;99.90;;;;;;5051442;28;20037;-68
2022/05/20 06:04:26;;;;;;;17.52;11.75;;;16.90;99.90;;;;;;5051702;28;20416;-69
2022/05/20 06:06:52;;;;;;;16.15;12.02;;;17.00;99.90;;;;;;5051788;28;20037;-69
2022/05/20 06:09:18;;;;;;;17.65;12.48;;;17.40;99.90;;;;;;5050366;28;20560;-69
2022/05/20 06:11:44;;;;;;;15.13;11.88;;;17.60;99.90;;;;;;5051387;28;20044;-69
2022/05/20 06:14:09;;;;;;;12.32;9.52;;;18.00;99.90;;;;;;5050310;28;20137;-69
2022/05/20 06:16:37;;;;;;;12.90;9.50;;;17.80;99.90;;;;;;5050445;28;20047;-69
2022/05/20 06:19:03;;;;;;;12.27;9.13;;;17.90;99.90;;;;;;5051658;28;20041;-69
2022/05/20 06:21:28;;;;;;;13.25;8.90;;;18.20;99.90;;;;;;5051541;28;20402;-69
2022/05/20 06:23:54;;;;;;;11.30;8.68;;;18.00;99.90;;;;;;5051641;28;20098;-69
2022/05/20 06:26:19;;;;;;;15.30;8.13;;;18.20;99.90;;;;;;5050313;28;20045;-69
2022/05/20 06:28:45;;;;;;;12.85;9.38;;;18.30;99.90;;;;;;5051408;28;20033;-69
2022/05/20 06:31:11;;;;;;;10.45;8.73;;;18.20;99.90;;;;;;5051093;28;20044;-71
2022/05/20 06:33:37;;;;;;;11.68;8.23;;;18.40;99.90;;;;;;5051630;28;20033;-69
2022/05/20 06:41:33;;;;;;;14.27;7.43;;;18.10;99.90;;;;;;5049865;28;20123;-69
2022/05/20 06:43:58;;;;;;;11.13;9.27;;;17.80;99.90;;;;;;5052764;28;20112;-69
2022/05/20 06:46:24;;;;;;;11.75;8.18;;;17.70;99.90;;;;;;5037027;28;20479;-69
2022/05/20 06:48:53;;;;;;;12.80;8.70;;;17.80;99.90;;;;;;5055054;28;20112;-69
2022/05/20 06:51:23;;;;;;;15.77;8.32;;;17.70;99.90;;;;;;5050649;28;20041;-69
2022/05/20 06:53:52;;;;;;;14.10;8.98;;;17.80;99.90;;;;;;5054894;28;20486;-69
2022/05/20 06:56:18;;;;;;;11.20;8.82;;;18.00;99.90;;;;;;5052154;28;20033;-68
2022/05/20 06:58:44;;;;;;;13.95;8.75;;;18.10;99.90;;;;;;5053753;28;20099;-68
2022/05/20 07:01:10;;;;;;;7.82;6.38;;;18.00;99.90;;;;;;5054645;28;20045;-68
2022/05/20 07:03:36;;;;;;;9.85;7.47;;;18.30;99.90;;;;;;5054933;28;20081;-68
2022/05/20 07:06:03;;;;;;;15.75;9.27;;;18.40;99.90;;;;;;5054774;28;20025;-69
2022/05/20 07:08:29;;;;;;;12.27;8.40;;;18.30;99.90;;;;;;5054836;28;20415;-69
2022/05/20 07:10:54;;;;;;;8.77;6.88;;;17.80;99.90;;;;;;5054547;28;20037;-69
2022/05/20 07:13:20;;;;;;;10.68;7.65;;;17.60;99.90;;;;;;5053589;28;20076;-69
2022/05/20 07:15:46;;;;;;;11.90;7.55;;;17.40;99.90;;;;;;5053277;28;20041;-69
2022/05/20 07:18:11;;;;;;;9.98;6.85;;;17.30;99.90;;;;;;5054307;28;20029;-69
2022/05/20 07:20:37;;;;;;;12.05;7.07;;;17.50;99.90;;;;;;5054268;28;20128;-69
2022/05/20 07:23:02;;;;;;;7.68;5.05;;;17.50;99.90;;;;;;5054757;28;20398;-69
2022/05/20 07:25:28;;;;;;;7.65;5.38;;;17.60;99.90;;;;;;5054432;28;20508;-70
2022/05/20 07:27:59;;;;;;;9.88;5.78;;;17.60;99.90;;;;;;5053916;28;20040;-69
2022/05/20 07:30:24;;;;;;;10.38;7.32;;;17.60;99.90;;;;;;5051264;28;20051;-69
2022/05/20 07:32:50;;;;;;;9.25;6.60;;;17.50;99.90;;;;;;5052915;28;20041;-68
2022/05/20 07:35:16;;;;;;;8.57;6.05;;;17.60;99.90;;;;;;5054396;28;20502;-69
2022/05/20 07:37:42;;;;;;;11.70;6.63;;;18.00;99.90;;;;;;5054179;28;20511;-68
2022/05/20 07:40:08;;;;;;;11.77;6.25;;;18.00;99.90;;;;;;5052889;28;20080;-69
2022/05/20 07:42:34;;;;;;;8.23;5.50;;;18.00;99.90;;;;;;5053284;28;20045;-69
2022/05/20 07:45:01;;;;;;;6.90;5.32;;;17.90;99.90;;;;;;5053050;28;20563;-69
2022/05/20 07:47:27;;;;;;;13.90;6.13;;;17.80;99.90;;;;;;5052955;28;20041;-69
2022/05/20 07:49:53;;;;;;;11.68;5.38;;;18.10;99.90;;;;;;5053119;28;20422;-70
2022/05/20 07:55:06;;;;;;;9.85;5.68;;;18.00;99.90;;;;;;5051929;28;20073;-70
2022/05/20 07:57:32;;;;;;;10.40;6.60;;;17.90;99.90;;;;;;5052698;28;20487;-70
2022/05/20 07:59:58;;;;;;;11.00;6.10;;;17.90;99.90;;;;;;5053887;28;20121;-71
2022/05/20 08:02:28;;;;;;;11.60;6.28;;;17.90;99.90;;;;;;5053967;28;20108;-70
2022/05/20 08:04:56;;;;;;;12.02;6.88;;;18.00;99.90;;;;;;5053918;28;20112;-70
2022/05/20 08:07:32;;;;;;;10.93;5.32;;;18.10;99.90;;;;;;5054083;28;20040;-71
2022/05/20 08:10:08;;;;;;;11.30;5.20;;;18.00;99.90;;;;;;5052416;28;20116;-71
2022/05/20 08:12:34;;;;;;;10.57;5.78;;;17.90;99.90;;;;;;5052553;28;20502;-70
2022/05/20 08:14:59;;;;;;;5.78;4.32;;;18.40;99.90;;;;;;5053849;28;20086;-71
2022/05/20 08:17:26;;;;;;;9.90;5.32;;;18.70;99.90;;;;;;5053513;28;20036;-70
2022/05/20 08:19:53;;;;;;;10.55;3.70;;;19.00;98.80;;;;;;5052375;28;20397;-70
2022/05/20 08:22:23;;;;;;;7.53;3.40;;;18.90;96.40;;;;;;5053487;28;20041;-70
2022/05/20 08:24:54;;;;;;;10.15;4.43;;;19.10;96.00;;;;;;5052483;28;20041;-71
2022/05/20 08:27:21;;;;;;;4.70;3.63;;;19.10;95.50;;;;;;5053568;28;20048;-70
2022/05/20 08:29:47;;;;;;;6.75;4.53;;;19.00;95.20;;;;;;5053546;28;20426;-70
2022/05/20 08:32:14;;;;;;;8.68;3.60;;;18.80;95.80;;;;;;5053273;28;20045;-70
2022/05/20 08:34:39;;;;;;;9.88;4.53;;;19.10;96.10;;;;;;5053622;28;20060;-70
2022/05/20 08:37:05;;;;;;;7.47;4.22;;;19.20;96.50;;;;;;5053343;28;20088;-71
2022/05/20 08:39:30;;;;;;;5.25;3.17;;;19.20;95.20;;;;;;5052025;28;20403;-74
2022/05/20 08:41:57;;;;;;;5.93;3.40;;;19.60;94.60;;;;;;5051488;28;20041;-74
2022/05/20 08:44:24;;;;;;;9.25;3.60;;;19.70;93.90;;;;;;5051886;28;20059;-74
2022/05/20 08:46:51;;;;;;;5.43;3.47;;;19.60;93.40;;;;;;5053123;28;20041;-75
2022/05/20 08:49:21;;;;;;;3.92;2.90;;;19.60;93.40;;;;;;5052466;28;20597;-75
2022/05/20 08:51:49;;;;;;;6.65;3.15;;;19.60;92.90;;;;;;5052304;28;20418;-74
2022/05/20 08:54:15;;;;;;;5.82;2.38;;;19.70;92.50;;;;;;5051689;28;20410;-74
2022/05/20 08:56:40;;;;;;;4.88;1.92;;;19.60;92.70;;;;;;5051615;28;20044;-75
2022/05/20 08:59:12;;;;;;;4.88;2.00;;;19.80;91.40;;;;;;5052731;28;20037;-75
2022/05/20 09:01:44;;;;;;;6.22;2.25;;;20.00;90.70;;;;;;5051645;28;20041;-74
2022/05/20 09:04:13;;;;;;;8.60;3.50;;;20.40;90.40;;;;;;5051470;28;20048;-74
2022/05/20 09:06:57;;;;;;;3.42;2.58;;;20.70;90.30;;;;;;5051669;28;20033;-75
2022/05/20 09:09:27;;;;;;;6.60;3.20;;;20.40;86.70;;;;;;5052021;28;20040;-75
2022/05/20 09:11:55;;;;;;;4.95;2.97;;;20.50;89.40;;;;;;5052113;28;20063;-75
2022/05/20 09:17:14;;;;;;;7.05;2.60;;;20.50;89.70;;;;;;5052705;28;20123;-75
2022/05/20 09:20:01;;;;;;;10.23;2.03;;;20.50;87.70;;;;;;5051217;28;20087;-75
2022/05/20 09:22:33;;;;;;;4.93;2.17;;;20.60;83.40;;;;;;5051172;28;20064;-75
2022/05/20 09:24:59;;;;;;;5.88;2.10;;;20.60;82.70;;;;;;5052370;28;20713;-75
2022/05/20 09:27:33;;;;;;;5.15;2.30;;;20.60;85.90;;;;;;5051275;28;20088;-75
2022/05/20 09:30:23;;;;;;;6.03;3.55;;;20.60;83.70;;;;;;5050891;28;20478;-75
2022/05/20 09:33:11;;;;;;;6.78;3.40;;;20.30;85.50;;;;;;5051268;28;20490;-75
2022/05/20 09:35:37;;;;;;;5.00;3.40;;;20.40;86.70;;;;;;5051080;28;20045;-75
2022/05/20 09:38:26;;;;;;;7.95;3.33;;;20.30;89.50;;;;;;5051046;28;20045;-75
2022/05/20 09:40:51;;;;;;;7.45;3.55;;;20.50;87.80;;;;;;5033960;28;20048;-75
2022/05/20 09:43:28;;;;;;;6.75;3.00;;;20.60;89.70;;;;;;5050889;28;20040;-75
2022/05/20 09:45:58;;;;;;;4.95;3.08;;;20.70;88.00;;;;;;5051003;28;20048;-75
2022/05/20 09:48:45;;;;;;;7.85;3.03;;;20.80;89.50;;;;;;5034508;28;20052;-75
2022/05/20 09:51:41;;;;;;;5.90;3.53;;;20.70;86.60;;;;;;5050425;28;20044;-75
2022/05/20 09:54:20;;;;;;;5.53;3.17;;;20.60;85.10;;;;;;5050734;28;20502;-75
2022/05/20 09:57:04;;;;;;;4.75;3.10;;;20.60;85.80;;;;;;5051887;28;20127;-75
2022/05/20 09:59:36;;;;;;;5.97;3.85;;;20.60;83.20;;;;;;5050574;28;20049;-75
2022/05/20 10:02:20;;;;;;;7.93;3.83;;;20.30;85.30;;;;;;5051684;28;20120;-75
2022/05/20 10:04:56;;;;;;;9.32;4.10;;;20.10;85.40;;;;;;5050594;28;20124;-76
2022/05/20 10:07:55;;;;;;;6.63;3.83;;;20.20;86.70;;;;;;5051792;28;20037;-75
2022/05/20 10:10:42;;;;;;;6.53;3.70;;;20.10;83.70;;;;;;5033786;28;20041;-76
2022/05/20 10:13:32;;;;;;;5.40;3.65;;;20.20;83.90;;;;;;5050523;28;20052;-76
2022/05/20 10:16:10;;;;;;;8.35;4.40;;;19.90;85.50;;;;;;5050435;28;20043;-75
2022/05/20 10:18:41;;;;;;;5.90;3.13;;;19.90;87.00;;;;;;5050116;28;20056;-76
2022/05/20 10:21:15;;;;;;;8.00;4.45;;;20.00;86.50;;;;;;5050094;28;20133;-75
2022/05/20 10:24:19;;;;;;;8.27;5.18;;;19.80;87.50;;;;;;5051721;28;20044;-75
2022/05/20 10:26:50;;;;;;;;;;;19.80;87.00;;;;;;5051796;28;20040;-76
2022/05/20 10:32:34;;;;;;;6.85;4.43;;;19.60;89.30;;;;;;5051243;28;20394;-75
2022/05/20 10:35:03;;;;;;;7.88;3.50;;;19.70;87.30;;;;;;5050093;28;20045;-75
2022/05/20 10:37:34;;;;;;;6.35;3.03;;;19.70;85.30;;;;;;5049669;28;20037;-75
2022/05/20 10:40:38;;;;;;;5.82;4.00;;;19.90;83.40;;;;;;5050145;28;20037;-75
2022/05/20 10:43:26;;;;;;;6.78;4.75;;;19.80;84.90;;;;;;5029775;28;20065;-76
2022/05/20 10:49:06;;;;;;;5.80;4.43;;;19.80;87.10;;;;;;5031521;28;20049;-75
2022/05/20 10:51:56;;;;;;;7.25;3.85;;;19.80;85.80;;;;;;5030965;28;20041;-74
2022/05/20 10:54:44;;;;;;;8.43;3.92;;;19.90;83.30;;;;;;5029088;28;20447;-74
2022/05/20 10:57:48;;;;;;;5.35;4.85;;;19.80;82.20;;;;;;5049590;28;20477;-75
2022/05/20 11:00:19;;;;;;;7.05;5.78;;;19.60;82.20;;;;;;5048577;28;20041;-74
2022/05/20 11:03:38;;;;;;;5.68;4.60;;;19.50;84.70;;;;;;5050750;28;20063;-74
2022/05/20 11:06:25;;;;;;;5.88;4.20;;;19.90;84.40;;;;;;4992219;28;20076;-73
2022/05/20 11:09:28;;;;;;;8.07;3.97;;;19.90;84.60;;;;;;5003457;28;20706;-74
2022/05/20 11:11:56;;;;;;;6.53;4.53;;;20.00;80.60;;;;;;5025102;28;20474;-75
2022/05/20 11:14:40;;;;;;;4.97;3.88;;;19.90;81.60;;;;;;5050691;28;20032;-75
2022/05/20 11:17:13;;;;;;;;;;;20.00;80.30;;;;;;5050201;28;20079;-74
2022/05/20 11:19:57;;;;;;;5.28;4.18;;;20.00;79.70;;;;;;5047848;28;20298;-74
2022/05/20 11:22:36;;;;;;;7.25;5.72;;;20.10;81.00;;;;;;5049725;28;20056;-74
2022/05/20 11:25:45;;;;;;;8.93;5.68;;;20.40;81.50;;;;;;5051016;28;20083;-74
2022/05/20 11:28:22;;;;;;;9.93;5.57;;;20.30;81.90;;;;;;5050101;28;20059;-73
2022/05/20 11:31:07;;;;;;;10.00;5.88;;;20.20;81.10;;;;;;5053169;28;20044;-75
2022/05/20 11:33:47;;;;;;;8.27;6.03;;;20.30;81.90;;;;;;5054558;28;20056;-74
2022/05/20 11:36:41;;;;;;;11.65;6.78;;;20.20;82.10;;;;;;5036753;28;20041;-74
2022/05/20 11:39:41;;;;;;;10.32;6.38;;;20.30;79.10;;;;;;5053113;28;20509;-74
2022/05/20 11:42:34;;;;;;;7.55;5.90;;;20.30;79.60;;;;;;5054205;28;20178;-74
2022/05/20 11:45:22;;;;;;;9.00;6.97;;;20.40;80.00;;;;;;5053127;28;20566;-74
2022/05/20 11:47:48;;;;;;;10.60;7.22;;;20.50;79.80;;;;;;5054343;28;20403;-74
2022/05/20 11:50:37;;;;;;;9.02;7.40;;;20.60;80.80;;;;;;5053931;28;20040;-74
2022/05/20 11:53:14;;;;;;;8.88;7.70;;;20.50;77.00;;;;;;5053015;28;20041;-74
2022/05/20 11:55:51;;;;;;;10.80;9.10;;;20.40;77.60;;;;;;5052939;28;20047;-74
2022/05/20 11:58:35;;;;;;;9.95;7.50;;;20.40;77.90;;;;;;5054108;28;20045;-73
2022/05/20 12:01:04;;;;;;;9.65;6.93;;;20.40;79.50;;;;;;5052653;28;20087;-74
2022/05/20 12:06:20;;;;;;;9.10;7.60;;;20.40;78.60;;;;;;5052752;28;20049;-74
2022/05/20 12:08:50;;;;;;;10.10;7.82;;;20.40;79.50;;;;;;5053918;28;20115;-74
2022/05/20 12:11:28;;;;;;;11.90;7.60;;;20.50;80.10;;;;;;5053944;28;20040;-74
2022/05/20 12:13:58;;;;;;;8.43;6.78;;;20.50;77.30;;;;;;5052739;28;20045;-74
2022/05/20 12:16:24;;;;;;;6.50;5.32;;;20.40;75.60;;;;;;5053779;28;20041;-74
2022/05/20 12:24:39;;;;;;;8.20;5.50;;;20.30;68.40;;;;;;5052646;28;20430;-74
2022/05/20 12:27:23;;;;;;;9.48;5.60;;;20.40;68.10;;;;;;5052152;28;20120;-74
2022/05/20 12:30:03;;;;;;;8.35;6.15;;;20.20;66.80;;;;;;5052804;28;20086;-75
2022/05/20 12:32:34;;;;;;;11.38;5.78;;;20.20;67.80;;;;;;5053728;28;20046;-74
2022/05/20 12:35:13;;;;;;;11.80;7.40;;;20.30;68.90;;;;;;5052226;28;20079;-75
2022/05/20 12:37:42;;;;;;;8.32;5.45;;;20.20;68.80;;;;;;5034952;28;20134;-74
2022/05/20 12:40:22;;;;;;;7.35;4.90;;;20.30;68.60;;;;;;5051355;28;20041;-74
2022/05/20 12:42:57;;;;;;;7.28;4.10;;;20.40;65.70;;;;;;5053436;28;20037;-74
2022/05/20 12:45:25;;;;;;;5.85;4.20;;;20.50;65.90;;;;;;5053212;28;20041;-74
2022/05/20 12:47:51;;;;;;;8.10;4.93;;;20.60;65.90;;;;;;5051821;28;20094;-74
2022/05/20 12:50:16;;;;;;;8.82;4.45;;;20.60;65.70;;;;;;5051461;28;20128;-74
2022/05/20 12:52:48;;;;;;;7.28;4.40;;;20.70;65.10;;;;;;5053072;28;20044;-74
2022/05/20 12:55:23;;;;;;;9.43;4.72;;;20.70;62.20;;;;;;5051443;28;20052;-74
2022/05/20 12:57:58;;;;;;;9.50;6.03;;;20.70;63.40;;;;;;5051529;28;20049;-74
2022/05/20 13:00:33;;;;;;;7.80;5.72;;;20.70;67.30;;;;;;5051502;28;20120;-73
2022/05/20 13:03:08;;;;;;;8.48;6.10;;;20.70;66.50;;;;;;5035293;28;20445;-74
2022/05/20 13:05:46;;;;;;;7.70;5.60;;;20.70;66.90;;;;;;5051547;28;20076;-74
2022/05/20 13:08:17;;;;;;;7.68;5.10;;;20.60;66.30;;;;;;5050158;28;20037;-74
2022/05/20 13:10:43;;;;;;;4.70;4.10;;;20.50;65.30;;;;;;5050012;28;20048;-75
2022/05/20 13:13:15;;;;;;;5.97;3.80;;;20.40;64.00;;;;;;5051102;28;20033;-74
2022/05/20 13:16:03;;;;;;;5.82;4.13;;;20.40;63.40;;;;;;5050861;28;20037;-74
2022/05/20 13:18:35;;;;;;;9.55;3.83;;;20.40;63.00;;;;;;5049298;28;20474;-75
2022/05/20 13:21:19;;;;;;;7.47;3.60;;;20.30;63.70;;;;;;5050024;28;20048;-75
2022/05/20 13:23:50;;;;;;;6.15;3.70;;;20.30;63.10;;;;;;5050223;28;20039;-74
2022/05/20 13:26:28;;;;;;;6.70;4.60;;;20.20;64.30;;;;;;5051478;28;20202;-74
2022/05/20 13:29:12;;;;;;;7.20;4.97;;;20.10;65.40;;;;;;5034040;28;20063;-74
2022/05/20 13:31:39;;;;;;;7.28;4.30;;;20.20;67.50;;;;;;5049954;28;20044;-73
2022/05/20 13:34:04;;;;;;;4.95;3.38;;;20.10;67.80;;;;;;5051801;28;20419;-73
2022/05/20 13:36:57;;;;;;;5.75;3.15;;;20.00;67.30;;;;;;5033899;28;20037;-73
2022/05/20 13:39:23;;;;;;;4.93;3.05;;;19.90;65.90;;;;;;5047329;28;20051;-74
2022/05/20 13:41:50;;;;;;;3.85;2.50;;;19.80;66.00;;;;;;5050669;28;20037;-74
2022/05/20 13:44:19;;;;;;;3.00;1.80;;;19.70;66.10;;;;;;5051056;28;20041;-74